This is the latest recevied weather packets stored in our database for station/object M1DJR. If no packets are shown the sender has not sent any weather packets the latest 10 day(s).
| Time | Temp. | Humidity | Pressure | Rain* | Wind** | Luminosity | Snow |
|---|---|---|---|---|---|---|---|
| 1777610427 | 7.22° C | 58% | 1019.2 hPa | - | - | - | - |
| 1777609223 | 7.78° C | 57% | 1019.2 hPa | - | - | - | - |
| 1777606815 | 7.78° C | 55% | 1019.5 hPa | - | - | - | - |
| 1777605009 | 8.33° C | 52% | 1019.7 hPa | - | - | - | - |
| 1777601096 | 9.44° C | 48% | 1019.7 hPa | - | - | - | - |
| 1777600495 | 9.44° C | 48% | 1019.9 hPa | - | - | - | - |
| 1777596883 | 10° C | 45% | 1020.1 hPa | - | - | - | - |
| 1777596280 | 10° C | 45% | 1020.2 hPa | - | - | - | - |
| 1777595677 | 10° C | 45% | 1020.3 hPa | - | - | - | - |
| 1777592668 | 11.11° C | 41% | 1020.7 hPa | - | - | - | - |
| 1777588454 | 11.67° C | 39% | 1020.8 hPa | - | - | - | - |
| 1777585444 | 12.78° C | 37% | 1020.8 hPa | - | - | - | - |
| 1777583075 | 13.89° C | 35% | 1020.9 hPa | - | - | - | - |
| 1777577658 | 17.22° C | 28% | 1020.5 hPa | - | - | - | - |
| 1777577016 | 17.78° C | 28% | 1020.3 hPa | - | - | - | - |
| 1777576414 | 18.33° C | 27% | 1020.1 hPa | - | - | - | - |
| 1777571598 | 21.11° C | 20% | 1019.6 hPa | - | - | - | - |
| 1777570395 | 21.67° C | 20% | 1019.5 hPa | - | - | - | - |
| 1777569792 | 21.67° C | 21% | 1019.7 hPa | - | - | - | - |
| 1777567987 | 22.22° C | 20% | 1019.8 hPa | - | - | - | - |
| 1777566822 | 22.78° C | 21% | 1019.9 hPa | - | - | - | - |
| 1777563170 | 23.33° C | 21% | 1020.3 hPa | - | - | - | - |
| 1777562568 | 23.33° C | 20% | 1020.4 hPa | - | - | - | - |
| 1777561365 | 23.89° C | 21% | 1020.5 hPa | - | - | - | - |
| 1777560762 | 23.89° C | 21% | 1020.6 hPa | - | - | - | - |
* Rain since midnight (hover to see other rain measurements)
** Current wind speed in m/s (hover to see current wind gust speed)